sensor_id;sensor_type;location;lat;lon;timestamp;P1;durP1;ratioP1;P2;durP2;ratioP2
45784;SDS011;31489;51.404;5.474;2023-10-31T00:00:09;3.92;;;3.17;;
45784;SDS011;31489;51.404;5.474;2023-10-31T00:02:36;5.82;;;3.05;;
45784;SDS011;31489;51.404;5.474;2023-10-31T00:05:02;9.25;;;3.50;;
45784;SDS011;31489;51.404;5.474;2023-10-31T00:07:28;5.68;;;3.00;;
45784;SDS011;31489;51.404;5.474;2023-10-31T00:09:54;3.17;;;2.63;;
45784;SDS011;31489;51.404;5.474;2023-10-31T00:12:20;4.90;;;3.00;;
45784;SDS011;31489;51.404;5.474;2023-10-31T00:14:46;4.05;;;2.45;;
45784;SDS011;31489;51.404;5.474;2023-10-31T00:17:11;5.40;;;2.15;;
45784;SDS011;31489;51.404;5.474;2023-10-31T00:19:37;6.28;;;2.25;;
45784;SDS011;31489;51.404;5.474;2023-10-31T00:22:03;3.92;;;2.38;;
45784;SDS011;31489;51.404;5.474;2023-10-31T00:24:29;4.82;;;2.42;;
45784;SDS011;31489;51.404;5.474;2023-10-31T00:26:56;5.28;;;2.30;;
45784;SDS011;31489;51.404;5.474;2023-10-31T00:29:23;4.95;;;2.00;;
45784;SDS011;31489;51.404;5.474;2023-10-31T00:31:48;3.92;;;2.17;;
45784;SDS011;31489;51.404;5.474;2023-10-31T00:34:14;3.67;;;1.73;;
45784;SDS011;31489;51.404;5.474;2023-10-31T00:36:40;4.78;;;2.35;;
45784;SDS011;31489;51.404;5.474;2023-10-31T00:39:24;4.95;;;1.88;;
45784;SDS011;31489;51.404;5.474;2023-10-31T00:41:50;3.22;;;1.90;;
45784;SDS011;31489;51.404;5.474;2023-10-31T00:44:15;9.07;;;2.67;;
45784;SDS011;31489;51.404;5.474;2023-10-31T00:46:41;5.38;;;2.65;;
45784;SDS011;31489;51.404;5.474;2023-10-31T00:49:07;4.90;;;2.50;;
45784;SDS011;31489;51.404;5.474;2023-10-31T00:51:32;5.85;;;2.80;;
45784;SDS011;31489;51.404;5.474;2023-10-31T00:53:58;6.20;;;3.80;;
45784;SDS011;31489;51.404;5.474;2023-10-31T00:56:24;6.10;;;4.07;;
45784;SDS011;31489;51.404;5.474;2023-10-31T00:58:50;9.95;;;4.47;;
45784;SDS011;31489;51.404;5.474;2023-10-31T01:01:15;9.02;;;5.47;;
45784;SDS011;31489;51.404;5.474;2023-10-31T01:03:41;10.82;;;6.63;;
45784;SDS011;31489;51.404;5.474;2023-10-31T01:06:07;9.85;;;6.93;;
45784;SDS011;31489;51.404;5.474;2023-10-31T01:08:34;9.63;;;7.28;;
45784;SDS011;31489;51.404;5.474;2023-10-31T01:10:59;12.25;;;8.13;;
45784;SDS011;31489;51.404;5.474;2023-10-31T01:13:25;11.95;;;8.30;;
45784;SDS011;31489;51.404;5.474;2023-10-31T01:15:51;13.60;;;8.80;;
45784;SDS011;31489;51.404;5.474;2023-10-31T01:18:17;11.25;;;8.90;;
45784;SDS011;31489;51.404;5.474;2023-10-31T01:20:42;12.90;;;8.95;;
45784;SDS011;31489;51.404;5.474;2023-10-31T01:23:08;12.55;;;10.05;;
45784;SDS011;31489;51.404;5.474;2023-10-31T01:25:34;13.65;;;10.13;;
45784;SDS011;31489;51.404;5.474;2023-10-31T01:28:00;15.80;;;10.68;;
45784;SDS011;31489;51.404;5.474;2023-10-31T01:30:25;15.02;;;11.10;;
45784;SDS011;31489;51.404;5.474;2023-10-31T01:32:51;13.32;;;10.43;;
45784;SDS011;31489;51.404;5.474;2023-10-31T01:35:17;13.93;;;10.80;;
45784;SDS011;31489;51.404;5.474;2023-10-31T01:37:42;14.80;;;11.05;;
45784;SDS011;31489;51.404;5.474;2023-10-31T01:40:08;13.80;;;11.20;;
45784;SDS011;31489;51.404;5.474;2023-10-31T01:42:37;14.20;;;10.68;;
45784;SDS011;31489;51.404;5.474;2023-10-31T01:45:03;14.43;;;10.77;;
45784;SDS011;31489;51.404;5.474;2023-10-31T01:47:29;15.23;;;10.65;;
45784;SDS011;31489;51.404;5.474;2023-10-31T01:49:55;15.55;;;10.68;;
45784;SDS011;31489;51.404;5.474;2023-10-31T01:52:21;14.00;;;10.45;;
45784;SDS011;31489;51.404;5.474;2023-10-31T01:54:46;14.50;;;9.32;;
45784;SDS011;31489;51.404;5.474;2023-10-31T01:57:12;13.23;;;9.90;;
45784;SDS011;31489;51.404;5.474;2023-10-31T01:59:39;11.93;;;9.65;;
45784;SDS011;31489;51.404;5.474;2023-10-31T02:02:05;12.68;;;9.18;;
45784;SDS011;31489;51.404;5.474;2023-10-31T02:04:31;13.18;;;10.20;;
45784;SDS011;31489;51.404;5.474;2023-10-31T02:06:56;12.45;;;9.75;;
45784;SDS011;31489;51.404;5.474;2023-10-31T02:09:22;11.82;;;9.68;;
45784;SDS011;31489;51.404;5.474;2023-10-31T02:11:52;15.80;;;9.98;;
45784;SDS011;31489;51.404;5.474;2023-10-31T02:14:18;12.93;;;10.07;;
45784;SDS011;31489;51.404;5.474;2023-10-31T02:16:44;17.15;;;10.15;;
45784;SDS011;31489;51.404;5.474;2023-10-31T02:19:09;16.05;;;10.15;;
45784;SDS011;31489;51.404;5.474;2023-10-31T02:21:38;14.52;;;10.48;;
45784;SDS011;31489;51.404;5.474;2023-10-31T02:24:05;14.68;;;10.13;;
45784;SDS011;31489;51.404;5.474;2023-10-31T02:26:32;13.63;;;11.00;;
45784;SDS011;31489;51.404;5.474;2023-10-31T02:28:58;16.05;;;10.95;;
45784;SDS011;31489;51.404;5.474;2023-10-31T02:31:25;14.38;;;10.60;;
45784;SDS011;31489;51.404;5.474;2023-10-31T02:33:51;13.57;;;10.70;;
45784;SDS011;31489;51.404;5.474;2023-10-31T02:36:16;13.68;;;10.88;;
45784;SDS011;31489;51.404;5.474;2023-10-31T02:38:42;13.55;;;10.68;;
45784;SDS011;31489;51.404;5.474;2023-10-31T02:41:08;11.15;;;9.77;;
45784;SDS011;31489;51.404;5.474;2023-10-31T02:43:34;12.40;;;9.82;;
45784;SDS011;31489;51.404;5.474;2023-10-31T02:45:59;12.07;;;10.27;;
45784;SDS011;31489;51.404;5.474;2023-10-31T02:48:25;13.68;;;9.93;;
45784;SDS011;31489;51.404;5.474;2023-10-31T02:50:51;12.20;;;10.38;;
45784;SDS011;31489;51.404;5.474;2023-10-31T02:53:18;14.05;;;10.55;;
45784;SDS011;31489;51.404;5.474;2023-10-31T02:55:43;12.45;;;10.25;;
45784;SDS011;31489;51.404;5.474;2023-10-31T02:58:09;14.25;;;10.07;;
45784;SDS011;31489;51.404;5.474;2023-10-31T03:00:35;15.60;;;10.23;;
45784;SDS011;31489;51.404;5.474;2023-10-31T03:03:01;12.75;;;10.45;;
45784;SDS011;31489;51.404;5.474;2023-10-31T03:05:27;15.45;;;10.18;;
45784;SDS011;31489;51.404;5.474;2023-10-31T03:07:53;13.57;;;9.90;;
45784;SDS011;31489;51.404;5.474;2023-10-31T03:10:19;12.02;;;9.45;;
45784;SDS011;31489;51.404;5.474;2023-10-31T03:12:46;11.20;;;9.23;;
45784;SDS011;31489;51.404;5.474;2023-10-31T03:15:12;10.77;;;9.07;;
45784;SDS011;31489;51.404;5.474;2023-10-31T03:17:38;12.30;;;9.35;;
45784;SDS011;31489;51.404;5.474;2023-10-31T03:20:04;11.75;;;9.20;;
45784;SDS011;31489;51.404;5.474;2023-10-31T03:22:30;13.30;;;9.88;;
45784;SDS011;31489;51.404;5.474;2023-10-31T03:24:56;12.27;;;9.38;;
45784;SDS011;31489;51.404;5.474;2023-10-31T03:27:21;12.30;;;9.65;;
45784;SDS011;31489;51.404;5.474;2023-10-31T03:29:47;10.98;;;9.52;;
45784;SDS011;31489;51.404;5.474;2023-10-31T03:32:14;11.38;;;9.35;;
45784;SDS011;31489;51.404;5.474;2023-10-31T03:34:40;14.10;;;10.35;;
45784;SDS011;31489;51.404;5.474;2023-10-31T03:37:06;12.20;;;10.23;;
45784;SDS011;31489;51.404;5.474;2023-10-31T03:39:32;13.50;;;9.77;;
45784;SDS011;31489;51.404;5.474;2023-10-31T03:41:57;11.50;;;10.30;;
45784;SDS011;31489;51.404;5.474;2023-10-31T03:44:23;15.52;;;11.23;;
45784;SDS011;31489;51.404;5.474;2023-10-31T03:46:49;10.02;;;9.02;;
45784;SDS011;31489;51.404;5.474;2023-10-31T03:49:15;14.32;;;10.25;;
45784;SDS011;31489;51.404;5.474;2023-10-31T03:51:40;10.82;;;9.50;;
45784;SDS011;31489;51.404;5.474;2023-10-31T03:54:06;11.43;;;9.10;;
45784;SDS011;31489;51.404;5.474;2023-10-31T03:56:39;9.82;;;8.82;;
45784;SDS011;31489;51.404;5.474;2023-10-31T03:59:05;10.10;;;8.55;;
45784;SDS011;31489;51.404;5.474;2023-10-31T04:01:31;11.00;;;9.40;;
45784;SDS011;31489;51.404;5.474;2023-10-31T04:03:57;11.75;;;9.30;;
45784;SDS011;31489;51.404;5.474;2023-10-31T04:06:22;9.82;;;8.82;;
45784;SDS011;31489;51.404;5.474;2023-10-31T04:08:48;9.38;;;8.38;;
45784;SDS011;31489;51.404;5.474;2023-10-31T04:11:14;10.90;;;9.35;;
45784;SDS011;31489;51.404;5.474;2023-10-31T04:13:39;10.60;;;8.98;;
45784;SDS011;31489;51.404;5.474;2023-10-31T04:16:05;9.38;;;8.40;;
45784;SDS011;31489;51.404;5.474;2023-10-31T04:18:31;9.77;;;8.48;;
45784;SDS011;31489;51.404;5.474;2023-10-31T04:20:57;8.85;;;7.95;;
45784;SDS011;31489;51.404;5.474;2023-10-31T04:23:23;9.50;;;8.50;;
45784;SDS011;31489;51.404;5.474;2023-10-31T04:25:48;7.55;;;6.85;;
45784;SDS011;31489;51.404;5.474;2023-10-31T04:28:14;7.40;;;6.40;;
45784;SDS011;31489;51.404;5.474;2023-10-31T04:30:40;7.78;;;7.07;;
45784;SDS011;31489;51.404;5.474;2023-10-31T04:33:06;9.38;;;7.70;;
45784;SDS011;31489;51.404;5.474;2023-10-31T04:35:31;8.77;;;6.75;;
45784;SDS011;31489;51.404;5.474;2023-10-31T04:37:57;7.05;;;6.13;;
45784;SDS011;31489;51.404;5.474;2023-10-31T04:40:23;7.43;;;6.55;;
45784;SDS011;31489;51.404;5.474;2023-10-31T04:42:48;7.80;;;7.00;;
45784;SDS011;31489;51.404;5.474;2023-10-31T04:45:14;7.60;;;6.68;;
45784;SDS011;31489;51.404;5.474;2023-10-31T04:47:40;9.60;;;6.80;;
45784;SDS011;31489;51.404;5.474;2023-10-31T04:50:07;8.70;;;7.90;;
45784;SDS011;31489;51.404;5.474;2023-10-31T04:52:33;8.48;;;7.65;;
45784;SDS011;31489;51.404;5.474;2023-10-31T04:54:58;11.73;;;7.78;;
45784;SDS011;31489;51.404;5.474;2023-10-31T04:57:24;9.63;;;8.48;;
45784;SDS011;31489;51.404;5.474;2023-10-31T04:59:49;9.35;;;8.45;;
45784;SDS011;31489;51.404;5.474;2023-10-31T05:02:16;9.18;;;8.23;;
45784;SDS011;31489;51.404;5.474;2023-10-31T05:04:41;11.82;;;8.82;;
45784;SDS011;31489;51.404;5.474;2023-10-31T05:07:08;9.25;;;8.18;;
45784;SDS011;31489;51.404;5.474;2023-10-31T05:09:34;10.15;;;9.15;;
45784;SDS011;31489;51.404;5.474;2023-10-31T05:12:00;9.88;;;8.88;;
45784;SDS011;31489;51.404;5.474;2023-10-31T05:14:26;10.88;;;9.77;;
45784;SDS011;31489;51.404;5.474;2023-10-31T05:16:51;11.18;;;9.35;;
45784;SDS011;31489;51.404;5.474;2023-10-31T05:19:17;10.30;;;9.23;;
45784;SDS011;31489;51.404;5.474;2023-10-31T05:21:42;9.77;;;8.85;;
45784;SDS011;31489;51.404;5.474;2023-10-31T05:24:08;10.23;;;9.07;;
45784;SDS011;31489;51.404;5.474;2023-10-31T05:26:34;9.57;;;8.68;;
45784;SDS011;31489;51.404;5.474;2023-10-31T05:29:00;9.68;;;8.48;;
45784;SDS011;31489;51.404;5.474;2023-10-31T05:31:25;9.35;;;8.45;;
45784;SDS011;31489;51.404;5.474;2023-10-31T05:33:51;9.55;;;8.20;;
45784;SDS011;31489;51.404;5.474;2023-10-31T05:36:21;8.63;;;7.72;;
45784;SDS011;31489;51.404;5.474;2023-10-31T05:38:49;8.68;;;7.80;;
45784;SDS011;31489;51.404;5.474;2023-10-31T05:41:15;9.27;;;8.38;;
45784;SDS011;31489;51.404;5.474;2023-10-31T05:43:41;9.02;;;8.13;;
45784;SDS011;31489;51.404;5.474;2023-10-31T05:46:07;8.93;;;8.02;;
45784;SDS011;31489;51.404;5.474;2023-10-31T05:48:39;9.70;;;8.20;;
45784;SDS011;31489;51.404;5.474;2023-10-31T05:51:12;9.18;;;8.27;;
45784;SDS011;31489;51.404;5.474;2023-10-31T05:56:08;7.63;;;6.80;;
45784;SDS011;31489;51.404;5.474;2023-10-31T05:58:34;13.65;;;7.15;;
45784;SDS011;31489;51.404;5.474;2023-10-31T06:01:01;8.38;;;7.50;;
45784;SDS011;31489;51.404;5.474;2023-10-31T06:03:27;8.55;;;7.75;;
45784;SDS011;31489;51.404;5.474;2023-10-31T06:05:53;11.27;;;7.72;;
45784;SDS011;31489;51.404;5.474;2023-10-31T06:08:18;9.07;;;7.93;;
45784;SDS011;31489;51.404;5.474;2023-10-31T06:10:45;10.32;;;7.72;;
45784;SDS011;31489;51.404;5.474;2023-10-31T06:13:10;8.35;;;7.15;;
45784;SDS011;31489;51.404;5.474;2023-10-31T06:15:36;10.88;;;7.65;;
45784;SDS011;31489;51.404;5.474;2023-10-31T06:18:02;8.80;;;8.00;;
45784;SDS011;31489;51.404;5.474;2023-10-31T06:20:28;8.65;;;7.72;;
45784;SDS011;31489;51.404;5.474;2023-10-31T06:22:53;9.18;;;8.10;;
45784;SDS011;31489;51.404;5.474;2023-10-31T06:25:19;8.93;;;7.55;;
45784;SDS011;31489;51.404;5.474;2023-10-31T06:27:45;9.60;;;8.63;;
45784;SDS011;31489;51.404;5.474;2023-10-31T06:30:10;9.73;;;8.77;;
45784;SDS011;31489;51.404;5.474;2023-10-31T06:32:36;8.98;;;8.07;;
45784;SDS011;31489;51.404;5.474;2023-10-31T06:35:05;9.57;;;8.63;;
45784;SDS011;31489;51.404;5.474;2023-10-31T06:37:31;10.20;;;8.48;;
45784;SDS011;31489;51.404;5.474;2023-10-31T06:39:56;8.73;;;7.93;;
45784;SDS011;31489;51.404;5.474;2023-10-31T06:42:22;9.68;;;7.50;;
45784;SDS011;31489;51.404;5.474;2023-10-31T06:44:47;8.90;;;7.40;;
45784;SDS011;31489;51.404;5.474;2023-10-31T06:47:13;8.38;;;6.70;;
45784;SDS011;31489;51.404;5.474;2023-10-31T06:49:39;6.97;;;6.28;;
45784;SDS011;31489;51.404;5.474;2023-10-31T06:52:05;6.75;;;6.15;;
45784;SDS011;31489;51.404;5.474;2023-10-31T06:54:34;7.63;;;6.40;;
45784;SDS011;31489;51.404;5.474;2023-10-31T06:57:00;9.45;;;5.40;;
45784;SDS011;31489;51.404;5.474;2023-10-31T06:59:26;7.00;;;5.28;;
45784;SDS011;31489;51.404;5.474;2023-10-31T07:01:54;5.63;;;5.13;;
45784;SDS011;31489;51.404;5.474;2023-10-31T07:04:20;7.13;;;5.60;;
45784;SDS011;31489;51.404;5.474;2023-10-31T07:06:45;5.80;;;4.70;;
45784;SDS011;31489;51.404;5.474;2023-10-31T07:09:11;5.63;;;4.53;;
45784;SDS011;31489;51.404;5.474;2023-10-31T07:11:37;5.18;;;4.70;;
45784;SDS011;31489;51.404;5.474;2023-10-31T07:14:03;5.57;;;4.40;;
45784;SDS011;31489;51.404;5.474;2023-10-31T07:16:29;6.40;;;4.13;;
45784;SDS011;31489;51.404;5.474;2023-10-31T07:18:57;5.18;;;4.18;;
45784;SDS011;31489;51.404;5.474;2023-10-31T07:21:23;11.65;;;4.68;;
45784;SDS011;31489;51.404;5.474;2023-10-31T07:23:49;5.03;;;4.43;;
45784;SDS011;31489;51.404;5.474;2023-10-31T07:26:15;4.93;;;3.90;;
45784;SDS011;31489;51.404;5.474;2023-10-31T07:28:41;5.82;;;4.32;;
45784;SDS011;31489;51.404;5.474;2023-10-31T07:31:06;7.68;;;5.00;;
45784;SDS011;31489;51.404;5.474;2023-10-31T07:33:32;6.03;;;4.85;;
45784;SDS011;31489;51.404;5.474;2023-10-31T07:35:58;7.50;;;5.43;;
45784;SDS011;31489;51.404;5.474;2023-10-31T07:38:23;5.75;;;5.20;;
45784;SDS011;31489;51.404;5.474;2023-10-31T07:40:49;6.00;;;5.40;;
45784;SDS011;31489;51.404;5.474;2023-10-31T07:43:15;6.25;;;5.63;;
45784;SDS011;31489;51.404;5.474;2023-10-31T07:45:41;6.80;;;6.07;;
45784;SDS011;31489;51.404;5.474;2023-10-31T07:48:07;8.77;;;5.82;;
45784;SDS011;31489;51.404;5.474;2023-10-31T07:50:33;8.15;;;7.28;;
45784;SDS011;31489;51.404;5.474;2023-10-31T07:53:01;7.63;;;6.03;;
45784;SDS011;31489;51.404;5.474;2023-10-31T07:55:28;7.03;;;6.32;;
45784;SDS011;31489;51.404;5.474;2023-10-31T07:57:53;8.00;;;7.20;;
45784;SDS011;31489;51.404;5.474;2023-10-31T08:00:19;8.50;;;7.63;;
45784;SDS011;31489;51.404;5.474;2023-10-31T08:02:45;8.82;;;7.68;;
45784;SDS011;31489;51.404;5.474;2023-10-31T08:05:11;10.38;;;8.57;;
45784;SDS011;31489;51.404;5.474;2023-10-31T08:07:37;9.73;;;8.68;;
45784;SDS011;31489;51.404;5.474;2023-10-31T08:10:03;11.30;;;9.80;;
45784;SDS011;31489;51.404;5.474;2023-10-31T08:12:29;12.18;;;9.95;;
45784;SDS011;31489;51.404;5.474;2023-10-31T08:14:55;12.80;;;10.10;;
45784;SDS011;31489;51.404;5.474;2023-10-31T08:17:20;11.63;;;10.30;;
45784;SDS011;31489;51.404;5.474;2023-10-31T08:19:46;13.48;;;10.27;;
45784;SDS011;31489;51.404;5.474;2023-10-31T08:22:13;10.85;;;9.68;;
45784;SDS011;31489;51.404;5.474;2023-10-31T08:24:38;10.38;;;9.27;;
45784;SDS011;31489;51.404;5.474;2023-10-31T08:27:04;11.73;;;9.57;;
45784;SDS011;31489;51.404;5.474;2023-10-31T08:29:30;13.73;;;10.18;;
45784;SDS011;31489;51.404;5.474;2023-10-31T08:31:56;10.32;;;9.00;;
45784;SDS011;31489;51.404;5.474;2023-10-31T08:34:22;9.63;;;8.30;;
45784;SDS011;31489;51.404;5.474;2023-10-31T08:36:48;12.52;;;8.43;;
45784;SDS011;31489;51.404;5.474;2023-10-31T08:39:13;8.95;;;7.97;;
45784;SDS011;31489;51.404;5.474;2023-10-31T08:41:52;12.93;;;8.02;;
45784;SDS011;31489;51.404;5.474;2023-10-31T08:44:18;10.60;;;8.30;;
45784;SDS011;31489;51.404;5.474;2023-10-31T08:46:44;8.57;;;7.78;;
45784;SDS011;31489;51.404;5.474;2023-10-31T08:49:10;9.43;;;7.53;;
45784;SDS011;31489;51.404;5.474;2023-10-31T08:51:35;13.60;;;8.32;;
45784;SDS011;31489;51.404;5.474;2023-10-31T08:54:01;11.18;;;8.07;;
45784;SDS011;31489;51.404;5.474;2023-10-31T08:56:27;8.85;;;7.93;;
45784;SDS011;31489;51.404;5.474;2023-10-31T08:58:52;10.20;;;7.70;;
45784;SDS011;31489;51.404;5.474;2023-10-31T09:01:19;8.88;;;7.30;;
45784;SDS011;31489;51.404;5.474;2023-10-31T09:03:45;11.05;;;8.02;;
45784;SDS011;31489;51.404;5.474;2023-10-31T09:06:10;12.63;;;8.00;;
45784;SDS011;31489;51.404;5.474;2023-10-31T09:08:36;8.50;;;7.60;;
45784;SDS011;31489;51.404;5.474;2023-10-31T09:11:03;12.23;;;7.82;;
45784;SDS011;31489;51.404;5.474;2023-10-31T09:13:30;14.02;;;7.88;;
45784;SDS011;31489;51.404;5.474;2023-10-31T09:15:57;11.88;;;8.05;;
45784;SDS011;31489;51.404;5.474;2023-10-31T09:18:25;8.35;;;7.50;;
45784;SDS011;31489;51.404;5.474;2023-10-31T09:20:51;9.48;;;7.65;;
45784;SDS011;31489;51.404;5.474;2023-10-31T09:23:17;9.32;;;7.65;;
45784;SDS011;31489;51.404;5.474;2023-10-31T09:25:43;10.98;;;8.27;;
45784;SDS011;31489;51.404;5.474;2023-10-31T09:28:09;9.20;;;7.88;;
45784;SDS011;31489;51.404;5.474;2023-10-31T09:30:35;10.32;;;8.07;;
45784;SDS011;31489;51.404;5.474;2023-10-31T09:33:01;11.15;;;8.07;;
45784;SDS011;31489;51.404;5.474;2023-10-31T09:35:27;9.52;;;8.15;;
45784;SDS011;31489;51.404;5.474;2023-10-31T09:37:53;8.98;;;7.85;;
45784;SDS011;31489;51.404;5.474;2023-10-31T09:40:19;11.13;;;7.35;;
45784;SDS011;31489;51.404;5.474;2023-10-31T09:42:45;10.38;;;8.05;;
45784;SDS011;31489;51.404;5.474;2023-10-31T09:45:12;9.10;;;8.05;;
45784;SDS011;31489;51.404;5.474;2023-10-31T09:47:38;8.23;;;7.43;;
45784;SDS011;31489;51.404;5.474;2023-10-31T09:50:05;11.00;;;8.02;;
45784;SDS011;31489;51.404;5.474;2023-10-31T09:52:34;7.78;;;6.97;;
45784;SDS011;31489;51.404;5.474;2023-10-31T09:55:01;9.77;;;7.30;;
45784;SDS011;31489;51.404;5.474;2023-10-31T09:57:27;8.15;;;7.03;;
45784;SDS011;31489;51.404;5.474;2023-10-31T09:59:54;9.70;;;7.82;;
45784;SDS011;31489;51.404;5.474;2023-10-31T10:02:22;10.70;;;7.85;;
45784;SDS011;31489;51.404;5.474;2023-10-31T10:04:48;9.02;;;7.18;;
45784;SDS011;31489;51.404;5.474;2023-10-31T10:07:17;10.02;;;7.40;;
45784;SDS011;31489;51.404;5.474;2023-10-31T10:09:44;9.80;;;7.70;;
45784;SDS011;31489;51.404;5.474;2023-10-31T10:12:11;8.15;;;7.10;;
45784;SDS011;31489;51.404;5.474;2023-10-31T10:14:40;10.50;;;7.50;;
45784;SDS011;31489;51.404;5.474;2023-10-31T10:17:27;10.93;;;7.13;;
45784;SDS011;31489;51.404;5.474;2023-10-31T10:20:07;7.28;;;6.53;;
45784;SDS011;31489;51.404;5.474;2023-10-31T10:22:40;9.77;;;6.68;;
45784;SDS011;31489;51.404;5.474;2023-10-31T10:25:12;11.20;;;7.25;;
45784;SDS011;31489;51.404;5.474;2023-10-31T10:27:44;8.60;;;7.18;;
45784;SDS011;31489;51.404;5.474;2023-10-31T10:30:10;8.10;;;6.78;;
45784;SDS011;31489;51.404;5.474;2023-10-31T10:32:38;7.50;;;6.70;;
45784;SDS011;31489;51.404;5.474;2023-10-31T10:35:04;9.00;;;6.72;;
45784;SDS011;31489;51.404;5.474;2023-10-31T10:37:30;7.70;;;6.07;;
45784;SDS011;31489;51.404;5.474;2023-10-31T10:39:56;11.38;;;6.50;;
45784;SDS011;31489;51.404;5.474;2023-10-31T10:42:31;9.93;;;7.05;;
45784;SDS011;31489;51.404;5.474;2023-10-31T10:47:31;6.65;;;5.80;;
45784;SDS011;31489;51.404;5.474;2023-10-31T10:50:01;10.48;;;6.55;;
45784;SDS011;31489;51.404;5.474;2023-10-31T10:52:30;7.00;;;5.90;;
45784;SDS011;31489;51.404;5.474;2023-10-31T10:55:19;8.30;;;6.40;;
45784;SDS011;31489;51.404;5.474;2023-10-31T10:58:05;7.03;;;6.28;;
45784;SDS011;31489;51.404;5.474;2023-10-31T11:01:01;9.18;;;5.85;;
45784;SDS011;31489;51.404;5.474;2023-10-31T11:03:29;10.45;;;6.03;;
45784;SDS011;31489;51.404;5.474;2023-10-31T11:05:56;6.50;;;5.90;;
45784;SDS011;31489;51.404;5.474;2023-10-31T11:08:23;8.63;;;5.57;;
45784;SDS011;31489;51.404;5.474;2023-10-31T11:10:50;7.10;;;5.95;;
45784;SDS011;31489;51.404;5.474;2023-10-31T11:13:17;7.35;;;5.07;;
45784;SDS011;31489;51.404;5.474;2023-10-31T11:15:42;6.45;;;5.03;;
45784;SDS011;31489;51.404;5.474;2023-10-31T11:18:09;6.78;;;4.57;;
45784;SDS011;31489;51.404;5.474;2023-10-31T11:20:36;6.25;;;4.75;;
45784;SDS011;31489;51.404;5.474;2023-10-31T11:23:02;7.95;;;4.45;;
45784;SDS011;31489;51.404;5.474;2023-10-31T11:25:31;7.00;;;4.68;;
45784;SDS011;31489;51.404;5.474;2023-10-31T11:28:10;6.22;;;4.05;;
45784;SDS011;31489;51.404;5.474;2023-10-31T11:30:37;6.82;;;3.80;;
45784;SDS011;31489;51.404;5.474;2023-10-31T11:33:06;6.47;;;3.95;;
45784;SDS011;31489;51.404;5.474;2023-10-31T11:35:38;6.22;;;3.78;;
45784;SDS011;31489;51.404;5.474;2023-10-31T11:38:06;14.75;;;4.32;;
45784;SDS011;31489;51.404;5.474;2023-10-31T11:40:33;3.25;;;2.92;;
45784;SDS011;31489;51.404;5.474;2023-10-31T11:43:03;4.70;;;2.88;;
45784;SDS011;31489;51.404;5.474;2023-10-31T11:45:34;4.35;;;2.70;;
45784;SDS011;31489;51.404;5.474;2023-10-31T11:48:02;4.00;;;2.70;;
45784;SDS011;31489;51.404;5.474;2023-10-31T11:50:30;8.13;;;2.25;;
45784;SDS011;31489;51.404;5.474;2023-10-31T11:53:00;5.22;;;2.80;;
45784;SDS011;31489;51.404;5.474;2023-10-31T11:55:40;3.25;;;2.25;;
45784;SDS011;31489;51.404;5.474;2023-10-31T11:58:41;6.15;;;2.38;;
45784;SDS011;31489;51.404;5.474;2023-10-31T12:01:03;3.45;;;1.80;;
45784;SDS011;31489;51.404;5.474;2023-10-31T12:03:39;3.05;;;1.92;;
45784;SDS011;31489;51.404;5.474;2023-10-31T12:06:07;1.95;;;1.52;;
45784;SDS011;31489;51.404;5.474;2023-10-31T12:08:38;4.57;;;1.60;;
45784;SDS011;31489;51.404;5.474;2023-10-31T12:11:11;3.22;;;1.65;;
45784;SDS011;31489;51.404;5.474;2023-10-31T12:13:39;2.53;;;1.55;;
45784;SDS011;31489;51.404;5.474;2023-10-31T12:16:06;4.63;;;1.85;;
45784;SDS011;31489;51.404;5.474;2023-10-31T12:18:34;3.10;;;1.70;;
45784;SDS011;31489;51.404;5.474;2023-10-31T12:21:00;4.05;;;1.60;;
45784;SDS011;31489;51.404;5.474;2023-10-31T12:23:27;2.88;;;1.38;;
45784;SDS011;31489;51.404;5.474;2023-10-31T12:25:53;2.78;;;1.40;;
45784;SDS011;31489;51.404;5.474;2023-10-31T12:28:19;5.05;;;1.60;;
45784;SDS011;31489;51.404;5.474;2023-10-31T12:30:50;6.35;;;2.00;;
45784;SDS011;31489;51.404;5.474;2023-10-31T12:33:19;2.13;;;1.73;;
45784;SDS011;31489;51.404;5.474;2023-10-31T12:35:46;2.53;;;1.52;;
45784;SDS011;31489;51.404;5.474;2023-10-31T12:38:13;5.97;;;1.40;;
45784;SDS011;31489;51.404;5.474;2023-10-31T12:40:40;2.95;;;1.83;;
45784;SDS011;31489;51.404;5.474;2023-10-31T12:43:07;3.25;;;1.92;;
45784;SDS011;31489;51.404;5.474;2023-10-31T12:45:34;4.65;;;2.10;;
45784;SDS011;31489;51.404;5.474;2023-10-31T12:48:01;4.40;;;2.17;;
45784;SDS011;31489;51.404;5.474;2023-10-31T12:50:35;4.93;;;2.20;;
45784;SDS011;31489;51.404;5.474;2023-10-31T12:53:03;3.90;;;1.88;;
45784;SDS011;31489;51.404;5.474;2023-10-31T12:55:30;3.10;;;2.00;;
45784;SDS011;31489;51.404;5.474;2023-10-31T12:57:58;3.92;;;2.00;;
45784;SDS011;31489;51.404;5.474;2023-10-31T13:00:29;4.15;;;1.75;;
45784;SDS011;31489;51.404;5.474;2023-10-31T13:02:59;4.30;;;1.60;;
45784;SDS011;31489;51.404;5.474;2023-10-31T13:05:27;3.85;;;1.90;;
45784;SDS011;31489;51.404;5.474;2023-10-31T13:07:54;4.30;;;1.63;;
45784;SDS011;31489;51.404;5.474;2023-10-31T13:10:22;3.30;;;1.27;;
45784;SDS011;31489;51.404;5.474;2023-10-31T13:12:49;4.38;;;1.45;;
45784;SDS011;31489;51.404;5.474;2023-10-31T13:15:16;3.90;;;1.70;;
45784;SDS011;31489;51.404;5.474;2023-10-31T13:17:43;3.42;;;1.83;;
45784;SDS011;31489;51.404;5.474;2023-10-31T13:20:10;9.45;;;4.22;;
45784;SDS011;31489;51.404;5.474;2023-10-31T13:22:38;9.52;;;5.47;;
45784;SDS011;31489;51.404;5.474;2023-10-31T13:25:04;7.30;;;3.00;;
45784;SDS011;31489;51.404;5.474;2023-10-31T13:27:42;4.45;;;2.08;;
45784;SDS011;31489;51.404;5.474;2023-10-31T13:30:16;4.15;;;1.83;;
45784;SDS011;31489;51.404;5.474;2023-10-31T13:32:43;4.53;;;1.70;;
45784;SDS011;31489;51.404;5.474;2023-10-31T13:35:09;5.63;;;1.90;;
45784;SDS011;31489;51.404;5.474;2023-10-31T13:37:35;3.55;;;1.30;;
45784;SDS011;31489;51.404;5.474;2023-10-31T13:40:05;4.90;;;1.70;;
45784;SDS011;31489;51.404;5.474;2023-10-31T13:42:33;3.22;;;1.67;;
45784;SDS011;31489;51.404;5.474;2023-10-31T13:44:59;6.32;;;3.80;;
45784;SDS011;31489;51.404;5.474;2023-10-31T13:47:25;8.48;;;4.90;;
45784;SDS011;31489;51.404;5.474;2023-10-31T13:49:50;7.40;;;2.75;;
45784;SDS011;31489;51.404;5.474;2023-10-31T13:52:16;5.20;;;1.77;;
45784;SDS011;31489;51.404;5.474;2023-10-31T13:54:42;3.63;;;1.50;;
45784;SDS011;31489;51.404;5.474;2023-10-31T13:57:08;3.15;;;1.42;;
45784;SDS011;31489;51.404;5.474;2023-10-31T13:59:34;9.13;;;1.60;;
45784;SDS011;31489;51.404;5.474;2023-10-31T14:02:00;4.38;;;1.83;;
45784;SDS011;31489;51.404;5.474;2023-10-31T14:04:25;3.95;;;1.50;;
45784;SDS011;31489;51.404;5.474;2023-10-31T14:06:51;5.22;;;1.88;;
45784;SDS011;31489;51.404;5.474;2023-10-31T14:09:17;5.22;;;1.88;;
45784;SDS011;31489;51.404;5.474;2023-10-31T14:11:43;6.63;;;1.70;;
45784;SDS011;31489;51.404;5.474;2023-10-31T14:14:08;4.50;;;1.60;;
45784;SDS011;31489;51.404;5.474;2023-10-31T14:16:39;4.13;;;1.35;;
45784;SDS011;31489;51.404;5.474;2023-10-31T14:19:05;7.15;;;1.85;;
45784;SDS011;31489;51.404;5.474;2023-10-31T14:21:32;3.35;;;1.55;;
45784;SDS011;31489;51.404;5.474;2023-10-31T14:23:58;5.60;;;1.85;;
45784;SDS011;31489;51.404;5.474;2023-10-31T14:26:25;6.30;;;2.50;;
45784;SDS011;31489;51.404;5.474;2023-10-31T14:28:52;6.32;;;2.15;;
45784;SDS011;31489;51.404;5.474;2023-10-31T14:31:18;3.75;;;1.90;;
45784;SDS011;31489;51.404;5.474;2023-10-31T14:33:45;9.35;;;2.03;;
45784;SDS011;31489;51.404;5.474;2023-10-31T14:36:11;5.22;;;2.20;;
45784;SDS011;31489;51.404;5.474;2023-10-31T14:38:38;3.90;;;2.22;;
45784;SDS011;31489;51.404;5.474;2023-10-31T14:41:04;6.18;;;2.72;;
45784;SDS011;31489;51.404;5.474;2023-10-31T14:43:30;8.02;;;2.72;;